sensor_id;sensor_type;location;lat;lon;timestamp;P1;durP1;ratioP1;P2;durP2;ratioP2
77168;SDS011;66281;45.114;20.730;2023-02-18T00:01:56;50.77;;;26.33;;
77168;SDS011;66281;45.114;20.730;2023-02-18T00:11:56;48.58;;;26.08;;
77168;SDS011;66281;45.114;20.730;2023-02-18T00:21:57;45.15;;;26.30;;
77168;SDS011;66281;45.114;20.730;2023-02-18T00:31:57;51.25;;;27.70;;
77168;SDS011;66281;45.114;20.730;2023-02-18T00:41:58;47.63;;;26.55;;
77168;SDS011;66281;45.114;20.730;2023-02-18T00:51:59;51.20;;;27.77;;
77168;SDS011;66281;45.114;20.730;2023-02-18T01:02:00;48.85;;;27.55;;
77168;SDS011;66281;45.114;20.730;2023-02-18T01:12:00;48.00;;;27.52;;
77168;SDS011;66281;45.114;20.730;2023-02-18T01:22:01;46.37;;;23.87;;
77168;SDS011;66281;45.114;20.730;2023-02-18T01:32:02;47.47;;;27.63;;
77168;SDS011;66281;45.114;20.730;2023-02-18T01:42:02;52.10;;;27.67;;
77168;SDS011;66281;45.114;20.730;2023-02-18T01:52:11;49.80;;;27.73;;
77168;SDS011;66281;45.114;20.730;2023-02-18T02:02:16;43.97;;;25.93;;
77168;SDS011;66281;45.114;20.730;2023-02-18T02:53:54;44.77;;;22.13;;
77168;SDS011;66281;45.114;20.730;2023-02-18T03:04:25;37.03;;;18.83;;
77168;SDS011;66281;45.114;20.730;2023-02-18T03:14:39;38.38;;;20.88;;
77168;SDS011;66281;45.114;20.730;2023-02-18T03:24:43;36.07;;;22.10;;
77168;SDS011;66281;45.114;20.730;2023-02-18T03:34:49;38.60;;;21.07;;
77168;SDS011;66281;45.114;20.730;2023-02-18T03:44:54;41.40;;;22.02;;
77168;SDS011;66281;45.114;20.730;2023-02-18T03:54:56;36.50;;;20.63;;
77168;SDS011;66281;45.114;20.730;2023-02-18T04:04:57;35.47;;;18.23;;
77168;SDS011;66281;45.114;20.730;2023-02-18T04:14:57;38.67;;;20.17;;
77168;SDS011;66281;45.114;20.730;2023-02-18T04:24:58;39.20;;;21.15;;
77168;SDS011;66281;45.114;20.730;2023-02-18T04:34:58;45.53;;;22.77;;
77168;SDS011;66281;45.114;20.730;2023-02-18T04:44:59;38.63;;;20.13;;
77168;SDS011;66281;45.114;20.730;2023-02-18T04:54:59;60.90;;;29.45;;
77168;SDS011;66281;45.114;20.730;2023-02-18T05:05:00;43.45;;;22.98;;
77168;SDS011;66281;45.114;20.730;2023-02-18T05:15:00;36.78;;;20.20;;
77168;SDS011;66281;45.114;20.730;2023-02-18T05:25:01;37.30;;;19.63;;
77168;SDS011;66281;45.114;20.730;2023-02-18T05:35:01;36.47;;;19.43;;
77168;SDS011;66281;45.114;20.730;2023-02-18T05:45:02;32.75;;;19.45;;
77168;SDS011;66281;45.114;20.730;2023-02-18T05:55:03;33.47;;;17.90;;
77168;SDS011;66281;45.114;20.730;2023-02-18T06:05:04;34.70;;;17.33;;
77168;SDS011;66281;45.114;20.730;2023-02-18T06:15:05;31.80;;;17.37;;
77168;SDS011;66281;45.114;20.730;2023-02-18T06:25:06;31.80;;;16.63;;
77168;SDS011;66281;45.114;20.730;2023-02-18T06:35:06;62.27;;;28.20;;
77168;SDS011;66281;45.114;20.730;2023-02-18T06:45:07;36.00;;;19.70;;
77168;SDS011;66281;45.114;20.730;2023-02-18T06:55:08;36.53;;;21.07;;
77168;SDS011;66281;45.114;20.730;2023-02-18T07:05:08;31.67;;;17.33;;
77168;SDS011;66281;45.114;20.730;2023-02-18T07:15:09;34.53;;;19.00;;
77168;SDS011;66281;45.114;20.730;2023-02-18T07:25:09;29.35;;;16.73;;
77168;SDS011;66281;45.114;20.730;2023-02-18T07:35:12;42.83;;;26.48;;
77168;SDS011;66281;45.114;20.730;2023-02-18T07:45:13;25.63;;;16.30;;
77168;SDS011;66281;45.114;20.730;2023-02-18T07:55:17;21.50;;;11.70;;
77168;SDS011;66281;45.114;20.730;2023-02-18T08:05:18;22.67;;;13.93;;
77168;SDS011;66281;45.114;20.730;2023-02-18T08:15:18;20.52;;;13.20;;
77168;SDS011;66281;45.114;20.730;2023-02-18T08:25:19;27.00;;;14.55;;
77168;SDS011;66281;45.114;20.730;2023-02-18T08:35:19;26.60;;;15.47;;
77168;SDS011;66281;45.114;20.730;2023-02-18T08:45:20;27.17;;;15.10;;
77168;SDS011;66281;45.114;20.730;2023-02-18T08:55:20;27.30;;;15.88;;
77168;SDS011;66281;45.114;20.730;2023-02-18T09:05:21;65.43;;;33.43;;
77168;SDS011;66281;45.114;20.730;2023-02-18T09:15:21;343.50;;;122.82;;
77168;SDS011;66281;45.114;20.730;2023-02-18T09:25:22;71.82;;;35.28;;
77168;SDS011;66281;45.114;20.730;2023-02-18T09:35:22;30.80;;;14.13;;
77168;SDS011;66281;45.114;20.730;2023-02-18T09:45:23;25.15;;;13.18;;
77168;SDS011;66281;45.114;20.730;2023-02-18T09:55:32;32.60;;;16.53;;
77168;SDS011;66281;45.114;20.730;2023-02-18T10:05:38;27.13;;;15.10;;
77168;SDS011;66281;45.114;20.730;2023-02-18T10:15:41;20.63;;;12.57;;
77168;SDS011;66281;45.114;20.730;2023-02-18T10:25:43;26.97;;;15.43;;
77168;SDS011;66281;45.114;20.730;2023-02-18T10:56:41;23.80;;;13.80;;
77168;SDS011;66281;45.114;20.730;2023-02-18T11:06:47;30.17;;;14.40;;
77168;SDS011;66281;45.114;20.730;2023-02-18T11:16:49;33.03;;;17.53;;
77168;SDS011;66281;45.114;20.730;2023-02-18T11:26:49;33.70;;;16.92;;
77168;SDS011;66281;45.114;20.730;2023-02-18T11:36:50;26.30;;;15.45;;
77168;SDS011;66281;45.114;20.730;2023-02-18T11:57:03;23.90;;;13.60;;
77168;SDS011;66281;45.114;20.730;2023-02-18T12:47:50;60.03;;;30.03;;
77168;SDS011;66281;45.114;20.730;2023-02-18T13:18:19;39.20;;;29.23;;
77168;SDS011;66281;45.114;20.730;2023-02-18T13:38:50;22.20;;;13.87;;
77168;SDS011;66281;45.114;20.730;2023-02-18T13:59:09;22.73;;;12.68;;
77168;SDS011;66281;45.114;20.730;2023-02-18T14:19:26;19.92;;;12.13;;
77168;SDS011;66281;45.114;20.730;2023-02-18T14:29:28;25.73;;;13.60;;
77168;SDS011;66281;45.114;20.730;2023-02-18T14:49:51;27.70;;;15.53;;
77168;SDS011;66281;45.114;20.730;2023-02-18T14:59:56;27.37;;;16.83;;
77168;SDS011;66281;45.114;20.730;2023-02-18T15:09:57;23.30;;;15.48;;
77168;SDS011;66281;45.114;20.730;2023-02-18T15:19:58;36.28;;;20.52;;
77168;SDS011;66281;45.114;20.730;2023-02-18T15:30:12;29.00;;;15.17;;
77168;SDS011;66281;45.114;20.730;2023-02-18T15:40:17;33.33;;;17.67;;
77168;SDS011;66281;45.114;20.730;2023-02-18T15:50:25;37.17;;;19.97;;
77168;SDS011;66281;45.114;20.730;2023-02-18T16:00:29;71.53;;;29.88;;
77168;SDS011;66281;45.114;20.730;2023-02-18T16:20:34;78.57;;;36.50;;
77168;SDS011;66281;45.114;20.730;2023-02-18T16:30:36;83.03;;;40.53;;
77168;SDS011;66281;45.114;20.730;2023-02-18T16:40:37;91.93;;;44.47;;
77168;SDS011;66281;45.114;20.730;2023-02-18T16:50:38;116.90;;;53.72;;
77168;SDS011;66281;45.114;20.730;2023-02-18T17:00:38;157.93;;;70.40;;
77168;SDS011;66281;45.114;20.730;2023-02-18T17:10:39;214.25;;;91.50;;
77168;SDS011;66281;45.114;20.730;2023-02-18T17:20:39;151.23;;;66.97;;
77168;SDS011;66281;45.114;20.730;2023-02-18T17:30:40;169.38;;;74.78;;
77168;SDS011;66281;45.114;20.730;2023-02-18T17:40:41;239.53;;;102.43;;
77168;SDS011;66281;45.114;20.730;2023-02-18T17:50:41;231.60;;;103.03;;
77168;SDS011;66281;45.114;20.730;2023-02-18T18:00:59;273.67;;;129.13;;
77168;SDS011;66281;45.114;20.730;2023-02-18T18:11:00;268.73;;;129.27;;
77168;SDS011;66281;45.114;20.730;2023-02-18T18:21:01;225.17;;;106.37;;
77168;SDS011;66281;45.114;20.730;2023-02-18T18:31:01;201.13;;;94.77;;
77168;SDS011;66281;45.114;20.730;2023-02-18T18:41:02;110.03;;;53.75;;
77168;SDS011;66281;45.114;20.730;2023-02-18T18:51:02;65.82;;;31.98;;
77168;SDS011;66281;45.114;20.730;2023-02-18T19:01:04;68.27;;;32.47;;
77168;SDS011;66281;45.114;20.730;2023-02-18T19:11:05;82.53;;;36.00;;
77168;SDS011;66281;45.114;20.730;2023-02-18T19:21:05;64.40;;;34.10;;
77168;SDS011;66281;45.114;20.730;2023-02-18T19:31:09;73.07;;;36.25;;
77168;SDS011;66281;45.114;20.730;2023-02-18T19:41:12;61.93;;;33.13;;
77168;SDS011;66281;45.114;20.730;2023-02-18T19:51:14;59.70;;;28.70;;
77168;SDS011;66281;45.114;20.730;2023-02-18T20:01:15;149.47;;;65.67;;
77168;SDS011;66281;45.114;20.730;2023-02-18T20:11:16;78.50;;;39.50;;
77168;SDS011;66281;45.114;20.730;2023-02-18T20:21:17;67.28;;;34.83;;
77168;SDS011;66281;45.114;20.730;2023-02-18T20:31:17;60.13;;;34.58;;
77168;SDS011;66281;45.114;20.730;2023-02-18T20:41:19;74.33;;;38.13;;
77168;SDS011;66281;45.114;20.730;2023-02-18T20:51:21;82.57;;;40.13;;
77168;SDS011;66281;45.114;20.730;2023-02-18T21:01:21;97.00;;;46.13;;
77168;SDS011;66281;45.114;20.730;2023-02-18T21:11:23;91.43;;;44.75;;
77168;SDS011;66281;45.114;20.730;2023-02-18T21:21:25;96.37;;;45.57;;
77168;SDS011;66281;45.114;20.730;2023-02-18T21:31:27;254.90;;;104.45;;
77168;SDS011;66281;45.114;20.730;2023-02-18T21:41:29;143.73;;;62.78;;
77168;SDS011;66281;45.114;20.730;2023-02-18T21:51:40;128.47;;;54.90;;
77168;SDS011;66281;45.114;20.730;2023-02-18T22:01:42;125.43;;;54.47;;
77168;SDS011;66281;45.114;20.730;2023-02-18T22:11:43;115.50;;;53.83;;
77168;SDS011;66281;45.114;20.730;2023-02-18T22:21:44;95.23;;;44.93;;
77168;SDS011;66281;45.114;20.730;2023-02-18T22:31:49;72.93;;;32.80;;
77168;SDS011;66281;45.114;20.730;2023-02-18T22:41:49;49.85;;;25.48;;
77168;SDS011;66281;45.114;20.730;2023-02-18T22:51:50;45.60;;;24.20;;
77168;SDS011;66281;45.114;20.730;2023-02-18T23:01:52;41.75;;;21.40;;
77168;SDS011;66281;45.114;20.730;2023-02-18T23:11:53;42.43;;;20.50;;
77168;SDS011;66281;45.114;20.730;2023-02-18T23:21:54;35.70;;;19.95;;
77168;SDS011;66281;45.114;20.730;2023-02-18T23:31:55;35.15;;;19.35;;
77168;SDS011;66281;45.114;20.730;2023-02-18T23:41:55;37.80;;;19.00;;
77168;SDS011;66281;45.114;20.730;2023-02-18T23:51:56;35.75;;;18.23;;
